Time;durP1;ratioP1;P1;durP2;ratioP2;P2;SDS_P1;SDS_P2;PMS_P1;PMS_P2;Temp;Humidity;BMP_temperature;BMP_pressure;BME280_temperature;BME280_humidity;BME280_pressure;Samples;Min_cycle;Max_cycle;Signal;HPM_P1;HPM_P2
2020/12/15 00:00:57;;;;;;;3.87;3.47;;;6.80;99.90;;;;;;5083234;28;20488;-77
2020/12/15 00:03:25;;;;;;;5.30;3.77;;;6.80;99.90;;;;;;5083580;28;20557;-78
2020/12/15 00:05:53;;;;;;;3.50;2.97;;;6.70;99.90;;;;;;5082478;28;20465;-77
2020/12/15 00:08:20;;;;;;;3.70;2.63;;;6.70;99.90;;;;;;5081311;28;20833;-77
2020/12/15 00:10:48;;;;;;;2.83;2.47;;;6.70;99.90;;;;;;5081585;28;20475;-77
2020/12/15 00:13:15;;;;;;;3.40;2.90;;;6.70;99.90;;;;;;5083302;28;20552;-76
2020/12/15 00:15:42;;;;;;;2.73;2.53;;;6.70;99.90;;;;;;5080114;28;20493;-78
2020/12/15 00:18:09;;;;;;;3.53;3.17;;;6.80;99.90;;;;;;5067325;28;20572;-76
2020/12/15 00:20:40;;;;;;;2.60;2.40;;;6.70;99.90;;;;;;5066682;28;21126;-77
2020/12/15 00:23:08;;;;;;;3.80;2.40;;;6.80;99.90;;;;;;5086916;28;20476;-77
2020/12/15 00:25:35;;;;;;;2.40;2.20;;;6.80;99.90;;;;;;5092122;28;20486;-77
2020/12/15 00:28:03;;;;;;;3.00;2.10;;;6.90;51.50;;;;;;5075953;28;20495;-79
2020/12/15 00:30:30;;;;;;;1.80;1.67;;;6.90;11.10;;;;;;5086787;28;21208;-76
2020/12/15 00:32:57;;;;;;;2.40;2.20;;;6.90;1.00;;;;;;5085723;28;20542;-76
2020/12/15 00:35:24;;;;;;;2.63;2.43;;;6.90;1.00;;;;;;5085504;28;20485;-77
2020/12/15 00:37:51;;;;;;;2.17;1.97;;;7.00;1.00;;;;;;5084915;28;20487;-77
2020/12/15 00:40:18;;;;;;;2.07;1.97;;;7.10;1.00;;;;;;5084087;28;20480;-77
2020/12/15 00:42:45;;;;;;;2.13;2.03;;;7.20;1.00;;;;;;5086732;28;20552;-77
2020/12/15 00:45:13;;;;;;;2.50;1.90;;;7.20;1.00;;;;;;5085582;28;20515;-78
2020/12/15 00:47:40;;;;;;;1.87;1.50;;;7.20;1.00;;;;;;5073024;28;20555;-78
2020/12/15 00:50:08;;;;;;;2.57;2.13;;;7.40;1.00;;;;;;5082018;28;20528;-78
2020/12/15 00:52:35;;;;;;;2.40;1.70;;;7.50;1.00;;;;;;5082150;28;21115;-79
2020/12/15 00:55:03;;;;;;;1.97;1.77;;;7.70;1.00;;;;;;5085341;28;20478;-77
2020/12/15 00:57:30;;;;;;;2.97;2.10;;;7.70;1.00;;;;;;5064105;28;20548;-78
2020/12/15 00:59:58;;;;;;;2.33;2.03;;;7.80;1.00;;;;;;5082761;28;20523;-78
2020/12/15 01:02:26;;;;;;;2.37;2.07;;;7.80;1.00;;;;;;5085100;28;20483;-77
2020/12/15 01:04:55;;;;;;;2.90;2.00;;;7.70;1.00;;;;;;5078548;28;20479;-77
2020/12/15 01:07:22;;;;;;;2.23;1.90;;;7.80;1.00;;;;;;5085429;28;21061;-77
2020/12/15 01:09:49;;;;;;;1.77;1.67;;;7.70;1.00;;;;;;5090647;28;20468;-80
2020/12/15 01:12:16;;;;;;;4.93;2.70;;;7.80;1.00;;;;;;5086903;28;20494;-80
2020/12/15 01:14:43;;;;;;;2.53;2.33;;;7.80;1.00;;;;;;5088824;28;20460;-78
2020/12/15 01:17:11;;;;;;;1.97;1.87;;;7.90;1.00;;;;;;5086740;28;20489;-78
2020/12/15 01:19:40;;;;;;;2.30;2.10;;;7.90;1.00;;;;;;5086491;28;20468;-78
2020/12/15 01:22:08;;;;;;;2.63;1.90;;;7.90;1.00;;;;;;5083366;28;20470;-79
2020/12/15 01:24:35;;;;;;;2.50;2.30;;;7.80;1.00;;;;;;5079386;28;20776;-78
2020/12/15 01:27:02;;;;;;;1.80;1.70;;;7.80;1.00;;;;;;5084974;28;20504;-79
2020/12/15 01:29:29;;;;;;;2.40;1.90;;;7.70;1.00;;;;;;5066013;28;20475;-78
2020/12/15 01:31:56;;;;;;;1.80;1.70;;;7.70;1.00;;;;;;5084834;28;20495;-80
2020/12/15 01:34:23;;;;;;;2.20;1.70;;;7.70;1.00;;;;;;5082692;28;20475;-79
2020/12/15 01:36:51;;;;;;;2.70;2.30;;;7.80;1.00;;;;;;5082682;28;20509;-80
2020/12/15 01:39:18;;;;;;;4.23;2.60;;;7.80;1.00;;;;;;5081190;28;20578;-80
2020/12/15 01:41:45;;;;;;;7.00;4.43;;;7.60;1.00;;;;;;5066533;28;20481;-79
2020/12/15 01:44:13;;;;;;;2.83;2.17;;;7.60;1.00;;;;;;5084269;28;20680;-79
2020/12/15 01:46:40;;;;;;;2.83;1.97;;;7.60;1.00;;;;;;5078335;28;20555;-80
2020/12/15 01:49:08;;;;;;;3.30;2.17;;;7.60;1.00;;;;;;5086309;28;20575;-79
2020/12/15 01:51:36;;;;;;;4.97;3.27;;;7.50;1.00;;;;;;5084725;28;20483;-79
2020/12/15 01:54:05;;;;;;;2.40;2.20;;;7.50;1.00;;;;;;5078709;28;20476;-80
2020/12/15 01:56:32;;;;;;;1.70;1.60;;;7.50;1.00;;;;;;5083127;28;20889;-80
2020/12/15 01:59:03;;;;;;;2.60;2.30;;;7.40;1.00;;;;;;5090885;28;20993;-79
2020/12/15 02:01:41;;;;;;;2.40;1.97;;;7.40;1.00;;;;;;5085870;28;20521;-80
2020/12/15 02:04:09;;;;;;;2.20;1.70;;;7.30;1.00;;;;;;5066161;28;20492;-78
2020/12/15 02:06:36;;;;;;;2.20;2.07;;;7.30;1.00;;;;;;5069484;28;21007;-77
2020/12/15 02:09:05;;;;;;;1.40;1.30;;;7.20;1.00;;;;;;5082903;28;20529;-78
2020/12/15 02:11:42;;;;;;;1.60;1.50;;;7.20;1.00;;;;;;5090397;28;20584;-81
2020/12/15 02:14:10;;;;;;;4.03;1.50;;;7.20;1.00;;;;;;5070695;28;20460;-79
2020/12/15 02:16:40;;;;;;;2.53;1.60;;;7.30;1.00;;;;;;5086906;28;20959;-80
2020/12/15 02:19:08;;;;;;;2.07;1.57;;;7.40;1.00;;;;;;5088025;28;20507;-79
2020/12/15 02:21:49;;;;;;;1.70;1.60;;;7.40;1.00;;;;;;5085451;28;20496;-82
2020/12/15 02:24:16;;;;;;;4.33;2.00;;;7.50;1.00;;;;;;5066897;28;20501;-81
2020/12/15 02:26:43;;;;;;;2.37;1.60;;;7.50;1.00;;;;;;5076836;28;20471;-80
2020/12/15 02:29:10;;;;;;;1.93;1.40;;;7.40;1.00;;;;;;5087179;28;20467;-76
2020/12/15 02:31:39;;;;;;;1.97;1.60;;;7.60;1.00;;;;;;5090272;28;20489;-78
2020/12/15 02:34:07;;;;;;;2.27;2.03;;;7.80;1.00;;;;;;5087247;28;20512;-79
2020/12/15 02:36:34;;;;;;;2.33;1.63;;;7.80;1.00;;;;;;5078836;28;20513;-80
2020/12/15 02:39:07;;;;;;;2.63;1.70;;;7.90;1.00;;;;;;5067652;28;21012;-79
2020/12/15 02:41:34;;;;;;;2.33;1.80;;;8.00;1.00;;;;;;5085008;28;20458;-80
2020/12/15 02:44:02;;;;;;;1.70;1.57;;;8.00;1.00;;;;;;5085029;28;20470;-80
2020/12/15 02:46:29;;;;;;;1.87;1.60;;;8.10;1.00;;;;;;5083590;28;20458;-80
2020/12/15 02:48:56;;;;;;;1.83;1.70;;;8.10;1.00;;;;;;5087031;28;20482;-80
2020/12/15 02:51:24;;;;;;;2.10;1.60;;;8.10;1.00;;;;;;5078217;28;20478;-80
2020/12/15 02:53:51;;;;;;;2.30;2.10;;;8.10;1.00;;;;;;5083671;28;20474;-81
2020/12/15 02:56:21;;;;;;;1.93;1.57;;;8.10;1.00;;;;;;5064817;28;20491;-80
2020/12/15 02:58:48;;;;;;;1.60;1.50;;;8.10;1.00;;;;;;5080795;28;20502;-82
2020/12/15 03:01:15;;;;;;;2.27;1.90;;;8.00;1.00;;;;;;5070850;28;20504;-80
2020/12/15 03:03:43;;;;;;;2.23;1.70;;;8.00;1.00;;;;;;5062991;28;20476;-80
2020/12/15 03:06:10;;;;;;;1.90;1.80;;;8.00;1.00;;;;;;5080707;28;20471;-79
2020/12/15 03:08:37;;;;;;;1.50;1.40;;;8.00;1.00;;;;;;5088123;28;20497;-79
2020/12/15 03:11:06;;;;;;;1.60;1.50;;;7.80;1.00;;;;;;5086943;28;20473;-80
2020/12/15 03:13:34;;;;;;;1.90;1.80;;;7.30;1.00;;;;;;5064235;28;20520;-80
2020/12/15 03:16:01;;;;;;;1.50;1.40;;;7.10;1.00;;;;;;5086941;28;20458;-80
2020/12/15 03:18:29;;;;;;;2.37;1.83;;;7.10;85.00;;;;;;5086160;28;20501;-79
2020/12/15 03:20:56;;;;;;;2.00;1.80;;;7.10;99.90;;;;;;5069650;28;20483;-80
2020/12/15 03:23:23;;;;;;;2.10;1.90;;;7.10;48.20;;;;;;5084713;28;20537;-79
2020/12/15 03:25:53;;;;;;;3.97;1.40;;;7.10;3.80;;;;;;5069185;28;20857;-81
2020/12/15 03:28:21;;;;;;;1.50;1.30;;;7.10;1.00;;;;;;5070865;28;21112;-82
2020/12/15 03:30:49;;;;;;;2.87;1.47;;;7.30;1.00;;;;;;5083904;28;20530;-80
2020/12/15 03:33:17;;;;;;;2.40;1.43;;;7.50;1.00;;;;;;5081698;28;20486;-80
2020/12/15 03:35:44;;;;;;;1.40;1.20;;;7.70;1.00;;;;;;5068924;28;20476;-81
2020/12/15 03:38:12;;;;;;;1.43;1.20;;;7.80;1.00;;;;;;5090677;28;20502;-81
2020/12/15 03:40:39;;;;;;;1.57;1.40;;;7.80;1.00;;;;;;5090026;28;20476;-80
2020/12/15 03:43:07;;;;;;;1.70;1.53;;;7.90;1.00;;;;;;5090715;28;20459;-80
2020/12/15 03:45:34;;;;;;;1.80;1.70;;;7.80;1.00;;;;;;5072987;28;21224;-83
2020/12/15 03:48:02;;;;;;;3.00;1.53;;;7.70;1.00;;;;;;5084621;28;20521;-81
2020/12/15 03:50:29;;;;;;;1.67;1.57;;;7.60;1.00;;;;;;5068440;28;20468;-81
2020/12/15 03:52:56;;;;;;;1.70;1.60;;;7.60;1.00;;;;;;5092291;28;20484;-81
2020/12/15 03:55:24;;;;;;;2.17;1.77;;;7.50;3.20;;;;;;5074145;28;20890;-80
2020/12/15 03:57:51;;;;;;;2.20;2.00;;;7.40;34.60;;;;;;5096368;28;21063;-82
2020/12/15 04:00:19;;;;;;;2.83;1.83;;;7.40;1.00;;;;;;5093540;28;20457;-80
2020/12/15 04:02:47;;;;;;;1.70;1.60;;;7.30;1.00;;;;;;5097602;28;20510;-80
2020/12/15 04:05:15;;;;;;;1.90;1.63;;;7.40;7.10;;;;;;5074874;28;20458;-80
2020/12/15 04:07:43;;;;;;;3.80;1.93;;;7.50;1.00;;;;;;5096369;28;20492;-78
2020/12/15 04:10:11;;;;;;;1.70;1.60;;;7.60;1.00;;;;;;5076961;28;20998;-82
2020/12/15 04:12:50;;;;;;;2.27;1.50;;;7.70;1.00;;;;;;5084813;28;20456;-83
2020/12/15 04:15:17;;;;;;;2.33;1.63;;;7.80;1.00;;;;;;5099473;28;20459;-82
2020/12/15 04:17:44;;;;;;;1.33;1.20;;;7.90;1.00;;;;;;5081284;28;21140;-82
2020/12/15 04:20:12;;;;;;;1.23;1.13;;;7.80;1.00;;;;;;5074596;28;20475;-80
2020/12/15 04:22:40;;;;;;;1.87;1.47;;;7.80;1.00;;;;;;5088826;28;20454;-82
2020/12/15 04:25:07;;;;;;;1.50;1.30;;;7.90;1.00;;;;;;5095517;28;20547;-82
2020/12/15 04:27:34;;;;;;;1.63;1.30;;;8.00;1.00;;;;;;5098500;28;20486;-80
2020/12/15 04:30:03;;;;;;;1.87;1.63;;;8.10;1.00;;;;;;5097938;28;20469;-82
2020/12/15 04:32:30;;;;;;;2.67;2.03;;;8.20;1.00;;;;;;5084686;28;21071;-83
2020/12/15 04:34:57;;;;;;;3.10;2.10;;;8.20;1.00;;;;;;5095646;28;20458;-82
2020/12/15 04:37:24;;;;;;;2.60;2.40;;;8.20;1.00;;;;;;5097708;28;20497;-82
2020/12/15 04:39:52;;;;;;;2.47;1.80;;;8.20;1.00;;;;;;5107487;28;20466;-81
2020/12/15 04:42:19;;;;;;;1.70;1.60;;;8.20;1.00;;;;;;5092836;28;20533;-81
2020/12/15 04:44:47;;;;;;;2.07;1.57;;;7.90;1.00;;;;;;5085651;28;20468;-82
2020/12/15 04:47:18;;;;;;;1.40;1.30;;;7.80;1.00;;;;;;5094123;28;20490;-82
2020/12/15 04:49:59;;;;;;;1.97;1.87;;;7.90;1.00;;;;;;5093781;28;20467;-82
2020/12/15 04:52:40;;;;;;;2.07;1.87;;;8.00;1.00;;;;;;5091960;28;21099;-81
2020/12/15 04:55:08;;;;;;;3.20;1.90;;;8.10;1.00;;;;;;5079429;28;20497;-82
2020/12/15 04:57:40;;;;;;;2.20;1.87;;;8.10;1.00;;;;;;5095549;28;20502;-81
2020/12/15 05:00:08;;;;;;;1.77;1.57;;;8.10;1.00;;;;;;5078349;28;20478;-84
2020/12/15 05:02:40;;;;;;;2.33;1.77;;;8.00;1.00;;;;;;5073966;28;20852;-83
2020/12/15 05:05:07;;;;;;;1.60;1.50;;;8.10;1.00;;;;;;5072882;28;20523;-81
2020/12/15 05:07:40;;;;;;;1.80;1.30;;;8.10;6.20;;;;;;5096914;28;20518;-81
2020/12/15 05:10:09;;;;;;;1.90;1.40;;;8.10;1.00;;;;;;5093305;28;20472;-83
2020/12/15 05:12:36;;;;;;;2.40;1.83;;;8.10;20.70;;;;;;5077133;28;20483;-82
2020/12/15 05:15:08;;;;;;;1.83;1.50;;;8.00;14.10;;;;;;5083365;28;20479;-80
2020/12/15 05:17:39;;;;;;;2.30;1.77;;;8.00;52.20;;;;;;5096342;28;21364;-82
2020/12/15 05:20:08;;;;;;;2.80;2.20;;;8.10;99.90;;;;;;5092273;28;20484;-82
2020/12/15 05:22:40;;;;;;;2.80;1.70;;;8.00;99.90;;;;;;5091559;28;20464;-82
2020/12/15 05:25:09;;;;;;;4.30;1.97;;;8.10;99.90;;;;;;5092282;28;20477;-82
2020/12/15 05:27:42;;;;;;;1.80;1.50;;;8.10;99.90;;;;;;5089495;28;20482;-84
2020/12/15 05:30:11;;;;;;;1.63;1.50;;;8.10;99.90;;;;;;5071835;28;20622;-79
2020/12/15 05:32:51;;;;;;;1.80;1.70;;;8.10;99.90;;;;;;5082173;28;20583;-79
2020/12/15 05:35:26;;;;;;;3.07;1.70;;;8.00;99.90;;;;;;5080521;28;21324;-81
2020/12/15 05:37:55;;;;;;;1.90;1.50;;;8.00;99.90;;;;;;5084091;28;20513;-80
2020/12/15 05:40:23;;;;;;;3.03;1.47;;;8.10;99.90;;;;;;5067343;28;20514;-81
2020/12/15 05:42:54;;;;;;;2.13;1.93;;;8.20;99.90;;;;;;5067377;28;20465;-80
2020/12/15 05:45:22;;;;;;;3.80;2.93;;;8.20;99.90;;;;;;5087698;28;20525;-80
2020/12/15 05:47:51;;;;;;;2.60;2.13;;;8.20;99.90;;;;;;5089450;28;20539;-80
2020/12/15 05:50:24;;;;;;;3.63;2.83;;;8.20;49.90;;;;;;5090104;28;20564;-80
2020/12/15 05:52:59;;;;;;;1.93;1.70;;;8.20;1.00;;;;;;5065369;28;21077;-81
2020/12/15 05:55:28;;;;;;;2.60;2.00;;;8.30;1.00;;;;;;5080186;28;20458;-80
2020/12/15 05:57:57;;;;;;;2.47;2.20;;;8.30;1.00;;;;;;5061976;28;20487;-81
2020/12/15 06:00:26;;;;;;;2.17;1.83;;;8.30;1.00;;;;;;5060915;28;20478;-79
2020/12/15 06:03:00;;;;;;;1.90;1.67;;;8.40;1.00;;;;;;5078433;28;20471;-80
2020/12/15 06:05:30;;;;;;;2.60;2.40;;;8.40;99.90;;;;;;5087315;28;20770;-83
2020/12/15 06:07:58;;;;;;;2.40;2.03;;;8.40;99.90;;;;;;5073030;28;21039;-81
2020/12/15 06:10:27;;;;;;;2.77;2.60;;;8.40;99.90;;;;;;5090217;28;20970;-80
2020/12/15 06:12:56;;;;;;;2.00;1.70;;;8.40;99.90;;;;;;5095284;28;20525;-79
2020/12/15 06:15:23;;;;;;;1.80;1.70;;;8.30;99.90;;;;;;5085365;28;21157;-81
2020/12/15 06:17:53;;;;;;;1.90;1.67;;;8.20;59.80;;;;;;5088186;28;20649;-79
2020/12/15 06:20:21;;;;;;;1.70;1.50;;;8.10;15.40;;;;;;5095439;28;20479;-81
2020/12/15 06:22:52;;;;;;;2.70;1.50;;;8.10;46.50;;;;;;5084292;28;20531;-82
2020/12/15 06:25:28;;;;;;;2.37;1.80;;;8.30;53.00;;;;;;5091958;28;20541;-81
2020/12/15 06:28:01;;;;;;;2.30;1.87;;;8.40;99.90;;;;;;5095547;28;21026;-81
2020/12/15 06:30:29;;;;;;;2.00;1.80;;;8.50;99.90;;;;;;5073127;28;20994;-81
2020/12/15 06:33:00;;;;;;;3.23;2.27;;;8.60;99.90;;;;;;5090292;28;20495;-82
2020/12/15 06:35:27;;;;;;;3.60;2.40;;;8.50;99.90;;;;;;5086644;28;20460;-84
2020/12/15 06:37:55;;;;;;;2.63;2.43;;;8.50;99.90;;;;;;5073366;28;20559;-82
2020/12/15 06:40:22;;;;;;;2.47;2.27;;;8.50;1.00;;;;;;5094812;28;21046;-81
2020/12/15 06:42:52;;;;;;;19.87;10.63;;;8.50;99.90;;;;;;5074589;28;20453;-83
2020/12/15 06:45:22;;;;;;;12.73;8.83;;;8.50;99.90;;;;;;5087788;28;21128;-83
2020/12/15 06:47:57;;;;;;;10.20;5.80;;;8.50;99.90;;;;;;5072088;28;20477;-85
2020/12/15 06:50:25;;;;;;;7.43;3.70;;;8.50;1.00;;;;;;5072920;28;20477;-84
2020/12/15 06:52:52;;;;;;;3.63;2.97;;;8.50;1.00;;;;;;5085458;28;20555;-83
2020/12/15 06:55:30;;;;;;;4.60;3.43;;;8.50;1.00;;;;;;5094846;28;20492;-83
2020/12/15 06:58:01;;;;;;;3.63;3.20;;;8.50;1.00;;;;;;5092362;28;20580;-84
2020/12/15 07:00:36;;;;;;;4.93;4.20;;;8.50;1.00;;;;;;5090433;28;20472;-80
2020/12/15 07:03:04;;;;;;;6.50;3.53;;;8.50;1.00;;;;;;5082439;28;20453;-85
2020/12/15 07:05:33;;;;;;;7.40;3.40;;;8.50;99.90;;;;;;5104231;28;20467;-82
2020/12/15 07:08:05;;;;;;;4.47;3.57;;;8.40;99.90;;;;;;5100443;28;20777;-80
2020/12/15 07:10:33;;;;;;;3.30;2.93;;;8.40;95.80;;;;;;5075486;28;20502;-83
2020/12/15 07:13:01;;;;;;;4.63;3.50;;;8.40;47.20;;;;;;5113194;28;20498;-84
2020/12/15 07:15:30;;;;;;;2.97;2.30;;;8.40;1.00;;;;;;5086159;28;20990;-80
2020/12/15 07:17:57;;;;;;;1.70;1.60;;;8.40;1.00;;;;;;5086304;28;20492;-79
2020/12/15 07:20:25;;;;;;;1.93;1.73;;;8.30;99.90;;;;;;5086788;28;20472;-80
2020/12/15 07:22:52;;;;;;;1.90;1.80;;;8.40;99.90;;;;;;5075210;28;20464;-80
2020/12/15 07:25:20;;;;;;;3.00;1.40;;;8.40;99.90;;;;;;5083218;28;20471;-82
2020/12/15 07:27:48;;;;;;;1.97;1.87;;;8.50;99.90;;;;;;5095114;28;20546;-81
2020/12/15 07:30:17;;;;;;;1.93;1.80;;;8.50;99.90;;;;;;5093471;28;20839;-82
2020/12/15 07:32:46;;;;;;;1.60;1.50;;;8.60;99.90;;;;;;5075205;28;20521;-80
2020/12/15 07:35:17;;;;;;;2.87;2.10;;;8.70;99.90;;;;;;5106251;28;20590;-81
2020/12/15 07:37:45;;;;;;;2.37;1.70;;;8.60;99.90;;;;;;5089147;28;20477;-81
2020/12/15 07:40:14;;;;;;;2.10;2.00;;;8.80;99.90;;;;;;5089872;28;20488;-79
2020/12/15 07:42:54;;;;;;;2.97;1.70;;;8.50;99.90;;;;;;5093445;28;20524;-80
2020/12/15 07:45:24;;;;;;;1.87;1.67;;;8.30;99.90;;;;;;5086732;28;20525;-82
2020/12/15 07:47:52;;;;;;;2.33;2.13;;;8.20;99.90;;;;;;5093705;28;20489;-80
2020/12/15 07:50:26;;;;;;;2.30;2.10;;;8.10;1.00;;;;;;5072842;28;20475;-79
2020/12/15 07:52:54;;;;;;;1.87;1.73;;;8.10;1.00;;;;;;5069091;28;20562;-81
2020/12/15 07:55:22;;;;;;;2.33;2.13;;;8.10;21.30;;;;;;5090093;28;20464;-82
2020/12/15 07:57:51;;;;;;;2.00;1.80;;;8.30;1.00;;;;;;5081832;28;20529;-83
2020/12/15 08:00:20;;;;;;;1.67;1.57;;;8.50;1.00;;;;;;5071246;28;20472;-81
2020/12/15 08:02:52;;;;;;;2.77;2.17;;;8.70;1.00;;;;;;5087521;28;20551;-83
2020/12/15 08:05:21;;;;;;;3.97;2.00;;;8.90;1.00;;;;;;5079277;28;20456;-82
2020/12/15 08:07:50;;;;;;;2.13;2.03;;;9.00;1.00;;;;;;5089094;28;20495;-82
2020/12/15 08:10:24;;;;;;;2.40;2.20;;;9.10;1.00;;;;;;5067083;28;20469;-83
2020/12/15 08:12:52;;;;;;;2.67;2.47;;;9.10;1.00;;;;;;5088378;28;20486;-84
2020/12/15 08:15:20;;;;;;;2.63;2.37;;;9.10;1.00;;;;;;5076911;28;20494;-82
2020/12/15 08:17:50;;;;;;;2.17;1.93;;;9.10;1.00;;;;;;5064168;28;20503;-83
2020/12/15 08:20:26;;;;;;;3.30;2.73;;;9.10;20.10;;;;;;5097148;28;20464;-82
2020/12/15 08:23:05;;;;;;;2.60;2.40;;;9.10;99.90;;;;;;5073579;28;20508;-82
2020/12/15 08:25:34;;;;;;;2.73;2.53;;;9.10;99.90;;;;;;5090734;28;20453;-83
2020/12/15 08:28:09;;;;;;;2.90;2.60;;;9.10;99.90;;;;;;5069033;28;20791;-86
2020/12/15 08:30:38;;;;;;;2.80;2.33;;;9.10;99.90;;;;;;5069707;28;21016;-83
2020/12/15 08:33:07;;;;;;;2.37;2.17;;;9.10;99.90;;;;;;5094978;28;20489;-82
2020/12/15 08:35:35;;;;;;;2.17;1.97;;;9.10;99.90;;;;;;5085275;28;20463;-84
2020/12/15 08:38:07;;;;;;;1.70;1.60;;;9.10;99.90;;;;;;5070950;28;20499;-83
2020/12/15 08:40:35;;;;;;;2.10;1.53;;;9.10;99.90;;;;;;5071046;28;20837;-83
2020/12/15 08:43:04;;;;;;;1.60;1.50;;;9.00;99.90;;;;;;5075394;28;20476;-82
2020/12/15 08:45:32;;;;;;;1.87;1.60;;;9.00;99.90;;;;;;5084833;28;20463;-85
2020/12/15 08:48:01;;;;;;;2.10;1.80;;;9.00;99.90;;;;;;5070296;28;20543;-82
2020/12/15 08:50:31;;;;;;;2.97;1.90;;;9.00;99.90;;;;;;5072211;28;20478;-83
2020/12/15 08:53:15;;;;;;;3.73;1.83;;;8.90;99.90;;;;;;5085187;28;20489;-83
2020/12/15 08:55:44;;;;;;;2.70;2.00;;;8.80;99.90;;;;;;5072019;28;20533;-80
2020/12/15 08:58:13;;;;;;;2.53;2.33;;;8.80;1.00;;;;;;5091950;28;20884;-84
2020/12/15 09:00:46;;;;;;;3.90;2.00;;;8.90;1.00;;;;;;5082155;28;20910;-83
2020/12/15 09:03:16;;;;;;;3.10;2.33;;;8.70;1.00;;;;;;5087003;28;20832;-86
2020/12/15 09:05:51;;;;;;;2.60;2.30;;;8.60;99.90;;;;;;5071120;28;20471;-83
2020/12/15 09:08:20;;;;;;;3.50;2.53;;;8.70;98.50;;;;;;5086454;28;20509;-84
2020/12/15 09:10:48;;;;;;;2.77;2.40;;;8.80;1.00;;;;;;5087958;28;20522;-82
2020/12/15 09:13:16;;;;;;;2.90;2.27;;;8.90;1.00;;;;;;5067692;28;20478;-83
2020/12/15 09:15:51;;;;;;;2.50;2.30;;;9.00;1.00;;;;;;5091123;28;20465;-84
2020/12/15 09:18:29;;;;;;;2.87;2.27;;;9.10;99.90;;;;;;5093958;28;20494;-85
2020/12/15 09:21:09;;;;;;;2.20;2.00;;;9.00;99.90;;;;;;5092040;28;20673;-84
2020/12/15 09:23:37;;;;;;;2.63;1.90;;;9.10;99.90;;;;;;5090142;28;20468;-84
2020/12/15 09:26:04;;;;;;;2.50;2.30;;;9.30;99.90;;;;;;5100071;28;20468;-84
2020/12/15 09:28:32;;;;;;;3.50;2.27;;;9.30;99.90;;;;;;5073618;28;20482;-83
2020/12/15 09:31:00;;;;;;;2.87;2.57;;;9.20;99.90;;;;;;5096932;28;20469;-85
2020/12/15 09:33:30;;;;;;;3.53;2.87;;;9.30;99.90;;;;;;5093775;28;20475;-83
2020/12/15 09:35:59;;;;;;;2.70;1.70;;;9.40;99.90;;;;;;5093071;28;20462;-83
2020/12/15 09:38:27;;;;;;;2.77;2.07;;;9.40;99.90;;;;;;5100216;28;20492;-82
2020/12/15 09:40:56;;;;;;;2.23;1.87;;;9.40;99.90;;;;;;5094013;28;20539;-85
2020/12/15 09:43:24;;;;;;;2.27;2.07;;;9.30;99.90;;;;;;5085086;28;20561;-85
2020/12/15 09:45:52;;;;;;;1.90;1.80;;;9.40;99.90;;;;;;5068926;28;20447;-84
2020/12/15 09:48:19;;;;;;;2.57;2.10;;;9.30;99.90;;;;;;5100391;28;20490;-83
2020/12/15 09:50:49;;;;;;;2.80;2.60;;;9.20;99.90;;;;;;5076048;28;20472;-83
2020/12/15 09:53:18;;;;;;;2.93;2.67;;;9.20;99.90;;;;;;5089833;28;20478;-83
2020/12/15 09:55:46;;;;;;;3.00;2.60;;;9.10;1.00;;;;;;5069646;28;20479;-83
2020/12/15 09:58:14;;;;;;;2.10;1.90;;;9.00;1.00;;;;;;5076829;28;20491;-82
2020/12/15 10:00:52;;;;;;;2.90;2.67;;;9.00;1.00;;;;;;5092866;28;20461;-81
2020/12/15 10:03:20;;;;;;;3.07;2.87;;;9.00;1.00;;;;;;5096678;28;20471;-84
2020/12/15 10:05:49;;;;;;;3.60;2.70;;;9.10;1.00;;;;;;5098958;28;20495;-85
2020/12/15 10:08:19;;;;;;;3.33;2.70;;;9.30;99.90;;;;;;5075768;28;20489;-83
2020/12/15 10:10:48;;;;;;;3.37;3.03;;;9.40;99.90;;;;;;5068557;28;20992;-84
2020/12/15 10:13:15;;;;;;;19.13;4.07;;;9.50;99.90;;;;;;5095584;28;20704;-85
2020/12/15 10:15:44;;;;;;;5.70;3.90;;;9.50;99.90;;;;;;5106621;28;20481;-81
2020/12/15 10:18:14;;;;;;;3.10;2.60;;;9.50;99.90;;;;;;5088547;28;20512;-84
2020/12/15 10:20:42;;;;;;;2.97;2.57;;;9.50;99.90;;;;;;5089059;28;20495;-85
2020/12/15 10:23:10;;;;;;;3.80;2.20;;;9.50;99.90;;;;;;5073067;28;20458;-80
2020/12/15 10:25:39;;;;;;;2.50;1.80;;;9.40;99.90;;;;;;5097570;28;20470;-82
2020/12/15 10:28:09;;;;;;;2.93;1.67;;;9.40;99.90;;;;;;5095272;28;20473;-87
2020/12/15 10:30:37;;;;;;;3.53;3.23;;;9.60;99.90;;;;;;5077995;28;20478;-83
2020/12/15 10:33:07;;;;;;;2.20;2.03;;;9.80;99.90;;;;;;5075595;28;20489;-84
2020/12/15 10:35:35;;;;;;;2.00;1.80;;;10.00;99.90;;;;;;5089569;28;20463;-84
2020/12/15 10:38:03;;;;;;;2.73;2.43;;;10.00;99.90;;;;;;5081637;28;20505;-83
2020/12/15 10:40:32;;;;;;;2.47;2.00;;;10.00;99.90;;;;;;5070106;28;20749;-83
2020/12/15 10:43:01;;;;;;;3.00;2.47;;;9.80;99.90;;;;;;5087145;28;20854;-78
2020/12/15 10:45:29;;;;;;;3.80;2.67;;;9.80;99.90;;;;;;5061369;28;20978;-80
2020/12/15 10:47:57;;;;;;;4.47;2.67;;;9.70;99.90;;;;;;5091960;28;20540;-79
2020/12/15 10:50:25;;;;;;;3.50;2.43;;;9.70;99.90;;;;;;5068379;28;20476;-81
2020/12/15 10:52:54;;;;;;;2.77;2.17;;;9.90;99.90;;;;;;5081366;28;20540;-80
2020/12/15 10:55:22;;;;;;;2.63;2.30;;;10.00;99.90;;;;;;5083859;28;20517;-80
2020/12/15 10:57:50;;;;;;;4.53;2.90;;;10.00;99.90;;;;;;5083841;28;21067;-79
2020/12/15 11:00:19;;;;;;;2.13;1.93;;;10.20;99.90;;;;;;5080531;28;20531;-79
2020/12/15 11:02:48;;;;;;;3.43;3.10;;;10.40;99.90;;;;;;5070329;28;20490;-78
2020/12/15 11:05:16;;;;;;;3.40;2.93;;;10.40;99.90;;;;;;5086095;28;20515;-77
2020/12/15 11:07:45;;;;;;;3.53;2.60;;;10.50;99.90;;;;;;5060689;28;21246;-78
2020/12/15 11:10:13;;;;;;;4.57;3.50;;;10.50;99.90;;;;;;5090824;28;20481;-79
2020/12/15 11:12:41;;;;;;;3.40;3.10;;;10.50;1.00;;;;;;5080480;28;20941;-79
2020/12/15 11:15:09;;;;;;;4.50;2.53;;;10.60;1.00;;;;;;5079233;28;20473;-76
2020/12/15 11:17:37;;;;;;;3.13;2.80;;;10.60;1.00;;;;;;5089986;28;20467;-78
2020/12/15 11:20:05;;;;;;;3.20;2.90;;;10.70;1.00;;;;;;5070749;28;20512;-79
2020/12/15 11:22:32;;;;;;;3.90;3.47;;;10.80;1.00;;;;;;5083559;28;20467;-77
2020/12/15 11:25:00;;;;;;;3.30;3.00;;;10.80;1.00;;;;;;5064564;28;20562;-75
2020/12/15 11:27:28;;;;;;;3.50;2.80;;;10.90;1.00;;;;;;5081678;28;20493;-76
2020/12/15 11:29:55;;;;;;;3.63;3.03;;;10.80;5.90;;;;;;5080470;28;20479;-79
2020/12/15 11:32:31;;;;;;;3.70;3.30;;;10.80;99.90;;;;;;5088929;28;20473;-79
2020/12/15 11:35:00;;;;;;;3.70;3.23;;;10.80;1.00;;;;;;5079573;28;20834;-79
2020/12/15 11:37:27;;;;;;;2.83;2.63;;;10.90;1.00;;;;;;5084683;28;20479;-81
2020/12/15 11:39:54;;;;;;;4.20;3.13;;;11.00;1.00;;;;;;5079036;28;20677;-79
2020/12/15 11:42:21;;;;;;;4.03;3.43;;;11.00;99.90;;;;;;5061838;28;21047;-78
2020/12/15 11:44:54;;;;;;;3.27;2.93;;;11.00;1.00;;;;;;5062805;28;22670;-77
2020/12/15 11:47:23;;;;;;;4.50;3.10;;;11.00;1.00;;;;;;5080552;28;20518;-79
2020/12/15 11:49:51;;;;;;;3.60;3.10;;;11.00;99.90;;;;;;5075027;28;20468;-79
2020/12/15 11:52:40;;;;;;;2.93;2.50;;;11.00;99.90;;;;;;5086870;28;20559;-78
2020/12/15 11:55:07;;;;;;;5.57;3.27;;;11.10;99.90;;;;;;5086095;28;21147;-77
2020/12/15 11:57:34;;;;;;;3.60;3.40;;;11.10;78.10;;;;;;5086542;28;21275;-81
2020/12/15 12:00:04;;;;;;;3.57;2.40;;;11.10;99.90;;;;;;5086993;28;20885;-79
2020/12/15 12:02:31;;;;;;;5.87;2.87;;;11.00;99.90;;;;;;5064864;28;20989;-77
2020/12/15 12:04:59;;;;;;;4.57;2.60;;;10.90;1.00;;;;;;5091034;28;20470;-80
2020/12/15 12:07:26;;;;;;;2.67;2.37;;;11.00;1.00;;;;;;5086618;28;20497;-77
2020/12/15 12:09:55;;;;;;;2.43;2.00;;;11.00;99.90;;;;;;5086431;28;20462;-76
2020/12/15 12:12:22;;;;;;;3.60;2.03;;;10.90;99.90;;;;;;5095675;28;20455;-78
2020/12/15 12:14:50;;;;;;;2.83;2.10;;;10.90;99.90;;;;;;5089007;28;20490;-74
2020/12/15 12:17:21;;;;;;;3.80;2.30;;;11.10;1.00;;;;;;5094319;28;20514;-76
2020/12/15 12:19:49;;;;;;;3.27;2.80;;;11.30;1.00;;;;;;5066598;28;20464;-77
2020/12/15 12:22:16;;;;;;;3.60;2.83;;;11.40;1.00;;;;;;5092436;28;20492;-75
2020/12/15 12:24:43;;;;;;;3.10;2.80;;;11.40;99.90;;;;;;5070581;28;20471;-75
2020/12/15 12:27:11;;;;;;;2.33;2.10;;;11.50;1.00;;;;;;5089075;28;20486;-76
2020/12/15 12:29:39;;;;;;;3.27;2.87;;;11.60;99.90;;;;;;5073159;28;20457;-78
2020/12/15 12:32:06;;;;;;;3.37;3.07;;;11.70;74.60;;;;;;5069851;28;20840;-75
2020/12/15 12:34:34;;;;;;;2.43;2.23;;;11.70;99.90;;;;;;5072177;28;20542;-76
2020/12/15 12:37:02;;;;;;;1.87;1.67;;;11.60;1.00;;;;;;5090684;28;20491;-77
2020/12/15 12:39:32;;;;;;;3.60;2.70;;;11.20;1.00;;;;;;5073460;28;20843;-75
2020/12/15 12:42:01;;;;;;;3.20;2.90;;;11.10;99.90;;;;;;5082982;28;20468;-75
2020/12/15 12:44:29;;;;;;;3.13;2.83;;;11.10;1.00;;;;;;5089452;28;20465;-75
2020/12/15 12:46:57;;;;;;;2.77;2.17;;;11.10;99.90;;;;;;5071726;28;20545;-75
2020/12/15 12:49:25;;;;;;;2.10;1.70;;;11.10;99.90;;;;;;5092398;28;20477;-77
2020/12/15 12:51:52;;;;;;;2.97;2.07;;;11.10;99.90;;;;;;5069620;28;20511;-77
2020/12/15 12:54:20;;;;;;;3.37;1.80;;;11.20;99.90;;;;;;5086078;28;20851;-75
2020/12/15 12:56:47;;;;;;;1.87;1.37;;;11.40;99.90;;;;;;5063458;28;20449;-75
2020/12/15 12:59:15;;;;;;;3.60;1.60;;;11.50;42.30;;;;;;5070539;28;20832;-76
2020/12/15 13:01:43;;;;;;;4.80;1.60;;;11.20;99.90;;;;;;5071172;28;20551;-76
2020/12/15 13:04:11;;;;;;;2.80;1.73;;;11.10;99.90;;;;;;5083838;28;20462;-73
2020/12/15 13:06:38;;;;;;;2.77;1.60;;;11.10;99.90;;;;;;5087896;28;20460;-78
2020/12/15 13:09:06;;;;;;;1.90;1.53;;;11.10;1.00;;;;;;5089772;28;20805;-75